EJU85DP LEIB-LFSB
Flight info
| Callsign | EJU85DP |
|---|---|
| Flight time | N/A |
| Altitude | 32000 |
| Route | KABRE DCT ELTAN DCT MHN DCT MEROS DCT LAPIT DCT CHELY DCT LUMAS DCT MAXIR DCT LUSOL DCT BODRU DCT OKTET DCT IRMAR DCT KINES DCT VANAS DCT MOBLO DCT LAMUR DCT KORED N871 KONOL Z59 LUMEL |
| Aircraft | A20N/M-SDE2E3FGHIRWXY/LB1 |
Departure
| Time | 2026-05-06 14:04 |
|---|---|
| Airport | Ibiza Airport (LEIB) |
Arrival
| Time | N/A |
|---|---|
| Airport | EuroAirport Basel–Mulhouse–Freiburg (LFSB) |
| Time | Latitude | Longitude | Altitude | Speed | Heading |
|---|---|---|---|---|---|
| 2026-05-06 13:30 | 38.87442 | 1.36598 | 28 ft | 0 kts | 8° |
| 2026-05-06 13:55 | 38.87443 | 1.36598 | 28 ft | 0 kts | 8° |
| 2026-05-06 13:55 | 38.87453 | 1.36617 | 28 ft | 5 kts | 95° |
| 2026-05-06 13:55 | 38.87410 | 1.36640 | 28 ft | 5 kts | 162° |
| 2026-05-06 13:55 | 38.87387 | 1.36667 | 28 ft | 4 kts | 91° |
| 2026-05-06 13:56 | 38.87400 | 1.36703 | 28 ft | 4 kts | 60° |
| 2026-05-06 13:56 | 38.87415 | 1.36738 | 28 ft | 4 kts | 62° |
| 2026-05-06 13:56 | 38.87415 | 1.36777 | 28 ft | 5 kts | 133° |
| 2026-05-06 13:56 | 38.87377 | 1.36805 | 28 ft | 6 kts | 152° |
| 2026-05-06 13:57 | 38.87330 | 1.36835 | 28 ft | 8 kts | 153° |
| 2026-05-06 13:57 | 38.87282 | 1.36849 | 28 ft | 7 kts | 222° |
| 2026-05-06 13:57 | 38.87255 | 1.36788 | 28 ft | 8 kts | 243° |
| 2026-05-06 13:57 | 38.87225 | 1.36715 | 28 ft | 9 kts | 242° |
| 2026-05-06 13:58 | 38.87190 | 1.36631 | 28 ft | 11 kts | 242° |
| 2026-05-06 13:58 | 38.87152 | 1.36539 | 28 ft | 12 kts | 242° |
| 2026-05-06 13:58 | 38.87111 | 1.36439 | 28 ft | 13 kts | 242° |
| 2026-05-06 13:58 | 38.87067 | 1.36331 | 28 ft | 14 kts | 242° |
| 2026-05-06 13:59 | 38.87021 | 1.36217 | 28 ft | 14 kts | 242° |
| 2026-05-06 13:59 | 38.86972 | 1.36097 | 28 ft | 15 kts | 240° |
| 2026-05-06 13:59 | 38.86921 | 1.35977 | 28 ft | 15 kts | 242° |
| 2026-05-06 13:59 | 38.86874 | 1.35865 | 28 ft | 10 kts | 242° |
| 2026-05-06 14:00 | 38.86840 | 1.35808 | 28 ft | 7 kts | 187° |
| 2026-05-06 14:00 | 38.86808 | 1.35829 | 28 ft | 3 kts | 148° |
| 2026-05-06 14:00 | 38.86795 | 1.35838 | 28 ft | 0 kts | 153° |
| 2026-05-06 14:02 | 38.86790 | 1.35842 | 28 ft | 3 kts | 152° |
| 2026-05-06 14:02 | 38.86746 | 1.35872 | 28 ft | 9 kts | 151° |
| 2026-05-06 14:03 | 38.86716 | 1.35939 | 28 ft | 10 kts | 71° |
| 2026-05-06 14:03 | 38.86750 | 1.36022 | 28 ft | 11 kts | 62° |
| 2026-05-06 14:03 | 38.86889 | 1.36363 | 28 ft | 79 kts | 62° |
| 2026-05-06 14:03 | 38.87252 | 1.37234 | 29 ft | 140 kts | 61° |
| 2026-05-06 14:04 | 38.87756 | 1.38465 | 360 ft | 161 kts | 64° |
| 2026-05-06 14:04 | 38.88160 | 1.39773 | 979 ft | 163 kts | 78° |
| 2026-05-06 14:04 | 38.88379 | 1.41201 | 1665 ft | 166 kts | 80° |
| 2026-05-06 14:04 | 38.88594 | 1.42629 | 2295 ft | 168 kts | 79° |
| 2026-05-06 14:05 | 38.88868 | 1.44148 | 2723 ft | 184 kts | 76° |
| 2026-05-06 14:05 | 38.89201 | 1.45833 | 3080 ft | 207 kts | 76° |
| 2026-05-06 14:05 | 38.89572 | 1.47679 | 3620 ft | 222 kts | 75° |
| 2026-05-06 14:05 | 38.89962 | 1.49626 | 4360 ft | 228 kts | 75° |
| 2026-05-06 14:06 | 38.90356 | 1.51598 | 5112 ft | 233 kts | 75° |
| 2026-05-06 14:06 | 38.90713 | 1.53622 | 5861 ft | 237 kts | 83° |
| 2026-05-06 14:06 | 38.90745 | 1.55749 | 6544 ft | 243 kts | 94° |
| 2026-05-06 14:06 | 38.90556 | 1.57942 | 7003 ft | 260 kts | 97° |
| 2026-05-06 14:07 | 38.90311 | 1.60309 | 7489 ft | 277 kts | 97° |
| 2026-05-06 14:07 | 38.90055 | 1.62816 | 8144 ft | 287 kts | 97° |
| 2026-05-06 14:07 | 38.89724 | 1.65344 | 8926 ft | 291 kts | 104° |
| 2026-05-06 14:07 | 38.89114 | 1.67792 | 9684 ft | 295 kts | 113° |
| 2026-05-06 14:08 | 38.88273 | 1.70222 | 10398 ft | 301 kts | 115° |
| 2026-05-06 14:08 | 38.87369 | 1.72692 | 10803 ft | 316 kts | 116° |
| 2026-05-06 14:08 | 38.86406 | 1.75301 | 11149 ft | 332 kts | 116° |
| 2026-05-06 14:08 | 38.85408 | 1.78022 | 11465 ft | 348 kts | 116° |
| 2026-05-06 14:09 | 38.84355 | 1.80897 | 11767 ft | 363 kts | 117° |
| 2026-05-06 14:09 | 38.83264 | 1.83882 | 12072 ft | 376 kts | 117° |
| 2026-05-06 14:09 | 38.82141 | 1.86966 | 12504 ft | 387 kts | 117° |
| 2026-05-06 14:09 | 38.81116 | 1.90167 | 13123 ft | 390 kts | 106° |
| 2026-05-06 14:10 | 38.80885 | 1.93617 | 13716 ft | 396 kts | 84° |
| 2026-05-06 14:10 | 38.81596 | 1.97018 | 14436 ft | 396 kts | 67° |
| 2026-05-06 14:10 | 38.82699 | 2.00212 | 15138 ft | 395 kts | 65° |
| 2026-05-06 14:10 | 38.83814 | 2.03395 | 15838 ft | 398 kts | 66° |
| 2026-05-06 14:11 | 38.84942 | 2.06655 | 16505 ft | 399 kts | 66° |
| 2026-05-06 14:11 | 38.86059 | 2.09918 | 16949 ft | 405 kts | 66° |
| 2026-05-06 14:11 | 38.87177 | 2.13219 | 17255 ft | 412 kts | 67° |
| 2026-05-06 14:11 | 38.88337 | 2.16662 | 17543 ft | 423 kts | 67° |
| 2026-05-06 14:12 | 38.89498 | 2.20131 | 17933 ft | 430 kts | 67° |
| 2026-05-06 14:12 | 38.90686 | 2.23698 | 18446 ft | 435 kts | 67° |
| 2026-05-06 14:12 | 38.91863 | 2.27237 | 19003 ft | 439 kts | 66° |
| 2026-05-06 14:12 | 38.93070 | 2.30864 | 19656 ft | 442 kts | 66° |
| 2026-05-06 14:13 | 38.94269 | 2.34465 | 20143 ft | 447 kts | 66° |
| 2026-05-06 14:13 | 38.95510 | 2.38199 | 20617 ft | 452 kts | 66° |
| 2026-05-06 14:13 | 38.96738 | 2.41896 | 21107 ft | 457 kts | 66° |
| 2026-05-06 14:13 | 38.97976 | 2.45636 | 21569 ft | 461 kts | 66° |
| 2026-05-06 14:14 | 38.99236 | 2.49446 | 22028 ft | 465 kts | 67° |
| 2026-05-06 14:14 | 39.00494 | 2.53257 | 22471 ft | 470 kts | 67° |
| 2026-05-06 14:14 | 39.01778 | 2.57153 | 22910 ft | 474 kts | 67° |